createdAt,value
2023-01-01T00:01:40.531Z,97395.97
2023-01-01T00:06:32.746Z,97406.19
2023-01-01T00:11:24.535Z,97404.00
2023-01-01T00:16:16.316Z,97414.00
2023-01-01T00:21:12.458Z,97411.81
2023-01-01T00:26:11.814Z,97412.63
2023-01-01T00:31:11.567Z,97410.50
2023-01-01T00:36:14.149Z,97415.13
2023-01-01T00:41:06.044Z,97413.78
2023-01-01T00:45:57.824Z,97435.38
2023-01-01T00:50:50.746Z,97447.03
2023-01-01T00:55:44.293Z,97460.03
2023-01-01T01:00:36.852Z,97454.06
2023-01-01T01:05:28.587Z,97484.03
2023-01-01T01:10:22.285Z,97480.22
2023-01-01T01:15:15.293Z,97487.44
2023-01-01T01:20:07.985Z,97505.78
2023-01-01T01:24:59.670Z,97518.75
2023-01-01T01:29:51.551Z,97531.91
2023-01-01T01:34:43.163Z,97542.41
2023-01-01T01:39:34.997Z,97534.53
2023-01-01T01:44:48.541Z,97542.56
2023-01-01T01:49:40.345Z,97562.78
2023-01-01T01:54:32.269Z,97550.84
2023-01-01T01:59:27.528Z,97577.53
2023-01-01T02:04:19.886Z,97560.97
2023-01-01T02:09:11.738Z,97571.72
2023-01-01T02:14:04.160Z,97560.28
2023-01-01T02:19:06.066Z,97564.28
2023-01-01T02:24:21.342Z,97563.94
2023-01-01T02:29:30.903Z,97567.03
2023-01-01T02:34:27.221Z,97592.16
2023-01-01T02:39:22.832Z,97610.44
2023-01-01T02:44:15.507Z,97610.13
2023-01-01T02:49:10.595Z,97620.00
2023-01-01T02:54:20.640Z,97626.75
2023-01-01T02:59:43.250Z,97641.22
2023-01-01T03:04:40.444Z,97657.63
2023-01-01T03:09:44.665Z,97682.13
2023-01-01T03:14:54.013Z,97692.56
2023-01-01T03:19:48.720Z,97691.53
2023-01-01T03:24:59.394Z,97698.44
2023-01-01T03:29:56.729Z,97689.25
2023-01-01T03:34:57.433Z,97687.84
2023-01-01T03:39:53.081Z,97680.50
2023-01-01T03:44:54.348Z,97689.88
2023-01-01T03:49:46.891Z,97690.94
2023-01-01T03:55:15.273Z,97704.25
2023-01-01T04:00:09.637Z,97701.56
2023-01-01T04:05:05.095Z,97706.03
2023-01-01T04:10:00.620Z,97693.53
2023-01-01T04:14:52.424Z,97703.44
2023-01-01T04:19:44.900Z,97689.59
2023-01-01T04:24:39.260Z,97693.88
2023-01-01T04:29:31.011Z,97700.56
2023-01-01T04:34:22.820Z,97688.84
2023-01-01T04:39:14.422Z,97706.09
2023-01-01T04:44:06.150Z,97710.09
2023-01-01T04:48:58.065Z,97726.00
2023-01-01T04:53:49.650Z,97736.53
2023-01-01T04:58:42.739Z,97742.72
2023-01-01T05:03:37.940Z,97757.75
2023-01-01T05:08:34.233Z,97766.06
2023-01-01T05:13:25.940Z,97776.00
2023-01-01T05:18:17.515Z,97796.75
2023-01-01T05:23:09.105Z,97797.47
2023-01-01T05:28:00.850Z,97794.19
2023-01-01T05:32:52.532Z,97795.72
2023-01-01T05:37:44.225Z,97813.53
2023-01-01T05:42:36.215Z,97817.84
2023-01-01T05:47:30.062Z,97800.63
2023-01-01T05:52:26.465Z,97806.94
2023-01-01T05:57:18.654Z,97814.31
2023-01-01T06:02:10.396Z,97816.28
2023-01-01T06:07:02.223Z,97831.38
2023-01-01T06:11:53.885Z,97844.38
2023-01-01T06:16:45.581Z,97852.22
2023-01-01T06:21:37.286Z,97870.13
2023-01-01T06:26:31.732Z,97867.31
2023-01-01T06:31:24.586Z,97871.75
2023-01-01T06:36:17.715Z,97893.72
2023-01-01T06:41:23.658Z,97903.53
2023-01-01T06:46:33.873Z,97914.44
2023-01-01T06:51:28.262Z,97905.44
2023-01-01T06:56:20.714Z,97920.09
2023-01-01T07:01:15.468Z,97924.69
2023-01-01T07:06:08.459Z,97934.78
2023-01-01T07:11:00.624Z,97928.34
2023-01-01T07:15:53.472Z,97909.72
2023-01-01T07:20:49.815Z,97909.25
2023-01-01T07:25:42.397Z,97929.63
2023-01-01T07:30:34.130Z,97925.88
2023-01-01T07:35:25.950Z,97939.81
2023-01-01T07:40:17.593Z,97936.06
2023-01-01T07:45:12.486Z,97933.84
2023-01-01T07:50:04.590Z,97947.78
2023-01-01T07:54:56.303Z,97945.22
2023-01-01T07:59:47.929Z,97955.19
2023-01-01T08:04:39.916Z,97953.19
2023-01-01T08:09:31.655Z,97946.16
2023-01-01T08:14:23.372Z,97949.66
2023-01-01T08:19:15.018Z,97965.84
2023-01-01T08:24:06.959Z,97970.66
2023-01-01T08:28:59.184Z,97972.53
2023-01-01T08:33:50.825Z,97983.88
2023-01-01T08:38:43.706Z,97983.66
2023-01-01T08:43:35.351Z,97972.41
2023-01-01T08:48:30.704Z,97995.72
2023-01-01T08:53:23.121Z,97986.69
2023-01-01T08:58:14.781Z,98002.72
2023-01-01T09:03:06.784Z,97998.25
2023-01-01T09:07:58.562Z,97983.50
2023-01-01T09:12:50.244Z,97990.41
2023-01-01T09:17:41.874Z,97996.22
2023-01-01T09:22:34.179Z,97994.00
2023-01-01T09:27:25.863Z,97978.59
2023-01-01T09:32:18.794Z,97973.78
2023-01-01T09:37:10.462Z,98004.69
2023-01-01T09:42:26.525Z,98001.88
2023-01-01T09:47:23.324Z,98025.72
2023-01-01T09:52:16.787Z,98069.34
2023-01-01T09:57:19.601Z,98080.47
2023-01-01T10:02:41.419Z,98065.09
2023-01-01T10:08:00.382Z,98075.41
2023-01-01T10:13:06.455Z,98072.47
2023-01-01T10:18:00.607Z,98073.63
2023-01-01T10:23:14.905Z,98077.97
2023-01-01T10:28:23.806Z,98081.03
2023-01-01T10:33:15.509Z,98118.34
2023-01-01T10:38:07.750Z,98109.50
2023-01-01T10:43:01.518Z,98129.31
2023-01-01T10:48:25.986Z,98120.31
2023-01-01T10:53:35.609Z,98097.47
2023-01-01T10:58:35.238Z,98088.91
2023-01-01T11:03:27.048Z,98070.16
2023-01-01T11:08:19.387Z,98069.81
2023-01-01T11:13:20.078Z,98091.06
2023-01-01T11:18:20.737Z,98088.59
2023-01-01T11:23:39.336Z,98114.56
2023-01-01T11:28:34.426Z,98127.69
2023-01-01T11:33:27.584Z,98119.59
2023-01-01T11:38:24.435Z,98111.72
2023-01-01T11:43:22.634Z,98121.47
2023-01-01T11:48:28.238Z,98104.00
2023-01-01T11:53:22.920Z,98115.34
2023-01-01T11:58:38.792Z,98126.72
2023-01-01T12:03:55.555Z,98138.69
2023-01-01T12:08:50.902Z,98133.63
2023-01-01T12:13:52.413Z,98137.75
2023-01-01T12:18:56.136Z,98127.66
2023-01-01T12:23:47.804Z,98125.28
2023-01-01T12:28:57.874Z,98113.53
2023-01-01T12:34:13.259Z,98121.28
2023-01-01T12:39:45.547Z,98117.84
2023-01-01T12:44:55.492Z,98119.22
2023-01-01T12:50:10.606Z,98110.66
2023-01-01T12:55:20.829Z,98116.66
2023-01-01T13:00:18.118Z,98103.47
2023-01-01T13:05:43.286Z,98102.25
2023-01-01T13:10:39.219Z,98098.25
2023-01-01T13:15:44.173Z,98101.03
2023-01-01T13:20:41.064Z,98112.19
2023-01-01T13:25:32.762Z,98118.50
2023-01-01T13:30:36.434Z,98129.41
2023-01-01T13:35:28.256Z,98120.81
2023-01-01T13:40:30.240Z,98116.03
2023-01-01T13:50:59.403Z,98121.75
2023-01-01T13:56:15.577Z,98132.47
2023-01-01T14:01:13.018Z,98130.25
2023-01-01T14:06:14.583Z,98129.63
2023-01-01T14:11:24.850Z,98139.75
2023-01-01T14:16:16.846Z,98149.25
2023-01-01T14:21:15.561Z,98143.84
2023-01-01T14:26:12.570Z,98155.47
2023-01-01T14:31:22.517Z,98153.84
2023-01-01T14:36:22.232Z,98154.34
2023-01-01T14:41:40.830Z,98146.91
2023-01-01T14:46:33.292Z,98172.22
2023-01-01T14:51:26.937Z,98157.28
2023-01-01T14:56:26.178Z,98166.69
2023-01-01T15:01:24.001Z,98160.72
2023-01-01T15:06:18.058Z,98165.88
2023-01-01T15:11:09.793Z,98173.41
2023-01-01T15:16:20.171Z,98160.38
2023-01-01T15:21:30.796Z,98167.88
2023-01-01T15:26:29.250Z,98167.31
2023-01-01T15:31:21.026Z,98162.88
2023-01-01T15:36:12.664Z,98171.94
2023-01-01T15:41:45.090Z,98163.75
2023-01-01T15:46:36.865Z,98166.34
2023-01-01T15:51:29.713Z,98161.16
2023-01-01T15:56:25.983Z,98166.00
2023-01-01T16:01:27.819Z,98166.47
2023-01-01T16:06:21.792Z,98175.06
2023-01-01T16:11:14.543Z,98170.94
2023-01-01T16:16:22.519Z,98167.66
2023-01-01T16:21:14.215Z,98160.28
2023-01-01T16:26:05.813Z,98165.13
2023-01-01T16:30:58.125Z,98169.09
2023-01-01T16:35:50.025Z,98166.41
2023-01-01T16:40:41.737Z,98162.88
2023-01-01T16:45:33.479Z,98172.59
2023-01-01T16:50:25.258Z,98173.69
2023-01-01T16:55:17.011Z,98169.09
2023-01-01T17:00:09.469Z,98171.56
2023-01-01T17:05:01.153Z,98169.44
2023-01-01T17:09:52.830Z,98161.94
2023-01-01T17:14:44.585Z,98162.75
2023-01-01T17:19:36.299Z,98168.72
2023-01-01T17:24:27.998Z,98164.16
2023-01-01T17:29:23.642Z,98167.66
2023-01-01T17:34:15.540Z,98167.19
2023-01-01T17:39:07.221Z,98169.41
2023-01-01T17:43:59.373Z,98181.88
2023-01-01T17:48:51.689Z,98177.50
2023-01-01T17:53:43.693Z,98189.59
2023-01-01T17:58:35.902Z,98189.84
2023-01-01T18:03:27.768Z,98177.66
2023-01-01T18:08:19.459Z,98174.34
2023-01-01T18:13:11.279Z,98178.69
2023-01-01T18:18:02.985Z,98178.13
2023-01-01T18:22:59.539Z,98190.91
2023-01-01T18:27:57.175Z,98197.13
2023-01-01T18:32:49.429Z,98194.41
2023-01-01T18:37:41.175Z,98204.41
2023-01-01T18:42:49.040Z,98205.69
2023-01-01T18:47:40.677Z,98210.53
2023-01-01T18:52:34.222Z,98207.81
2023-01-01T18:57:29.465Z,98218.00
2023-01-01T19:02:29.040Z,98222.03
2023-01-01T19:07:20.719Z,98228.72
2023-01-01T19:12:17.801Z,98225.44
2023-01-01T19:17:21.495Z,98211.56
2023-01-01T19:22:24.481Z,98215.59
2023-01-01T19:27:17.921Z,98216.06
2023-01-01T19:32:09.681Z,98217.91
2023-01-01T19:37:02.161Z,98218.75
2023-01-01T19:41:53.908Z,98210.88
2023-01-01T19:46:45.768Z,98223.53
2023-01-01T19:51:37.500Z,98216.75
2023-01-01T19:56:29.144Z,98212.41
2023-01-01T20:01:20.898Z,98217.47
2023-01-01T20:06:12.696Z,98208.28
2023-01-01T20:11:05.801Z,98208.91
2023-01-01T20:15:58.256Z,98207.81
2023-01-01T20:21:08.379Z,98215.09
2023-01-01T20:26:00.044Z,98225.56
2023-01-01T20:30:51.759Z,98218.97
2023-01-01T20:36:01.916Z,98218.41
2023-01-01T20:40:53.705Z,98229.66
2023-01-01T20:45:45.494Z,98217.91
2023-01-01T20:50:37.338Z,98230.00
2023-01-01T20:55:29.054Z,98222.38
2023-01-01T21:00:20.807Z,98232.00
2023-01-01T21:05:13.089Z,98230.00
2023-01-01T21:10:05.248Z,98218.03
2023-01-01T21:14:57.040Z,98222.94
2023-01-01T21:19:50.894Z,98229.41
2023-01-01T21:24:42.917Z,98241.91
2023-01-01T21:29:35.508Z,98235.72
2023-01-01T21:34:41.780Z,98231.13
2023-01-01T21:39:33.459Z,98236.28
2023-01-01T21:44:25.233Z,98246.50
2023-01-01T21:49:27.958Z,98249.03
2023-01-01T21:54:35.401Z,98255.34
2023-01-01T21:59:42.000Z,98267.91
2023-01-01T22:04:51.634Z,98260.84
2023-01-01T22:09:48.431Z,98261.88
2023-01-01T22:14:45.989Z,98268.13
2023-01-01T22:19:38.552Z,98262.97
2023-01-01T22:24:35.259Z,98262.34
2023-01-01T22:29:27.233Z,98260.97
2023-01-01T22:34:23.265Z,98251.22
2023-01-01T22:39:35.508Z,98250.63
2023-01-01T22:44:27.528Z,98277.44
2023-01-01T22:49:30.414Z,98284.78
2023-01-01T22:54:22.105Z,98285.25
2023-01-01T22:59:13.960Z,98275.38
2023-01-01T23:04:05.608Z,98284.28
2023-01-01T23:08:57.522Z,98291.53
2023-01-01T23:14:10.571Z,98295.72
2023-01-01T23:19:02.525Z,98290.81
2023-01-01T23:23:56.376Z,98294.97
2023-01-01T23:28:48.337Z,98293.34
2023-01-01T23:33:41.203Z,98293.59
2023-01-01T23:38:33.523Z,98300.47
2023-01-01T23:43:25.184Z,98306.66
2023-01-01T23:48:17.517Z,98297.53
2023-01-01T23:53:09.362Z,98301.03
2023-01-01T23:58:01.031Z,98296.09
